sensor_id;sensor_type;location;lat;lon;timestamp;pressure;altitude;pressure_sealevel;temperature;humidity
82458;BME280;72081;48.870;11.074;2024-02-21T00:02:02;98207.50;;;3.59;90.33
82458;BME280;72081;48.870;11.074;2024-02-21T00:04:27;98201.56;;;3.57;90.94
82458;BME280;72081;48.870;11.074;2024-02-21T00:06:52;98203.22;;;3.58;90.92
82458;BME280;72081;48.870;11.074;2024-02-21T00:09:18;98196.78;;;3.61;90.42
82458;BME280;72081;48.870;11.074;2024-02-21T00:11:44;98198.94;;;3.57;91.12
82458;BME280;72081;48.870;11.074;2024-02-21T00:14:09;98193.31;;;3.52;90.98
82458;BME280;72081;48.870;11.074;2024-02-21T00:16:35;98183.75;;;3.51;91.42
82458;BME280;72081;48.870;11.074;2024-02-21T00:19:00;98184.41;;;3.53;91.46
82458;BME280;72081;48.870;11.074;2024-02-21T00:21:25;98184.25;;;3.55;90.93
82458;BME280;72081;48.870;11.074;2024-02-21T00:23:51;98177.50;;;3.52;91.72
82458;BME280;72081;48.870;11.074;2024-02-21T00:26:16;98171.22;;;3.53;91.22
82458;BME280;72081;48.870;11.074;2024-02-21T00:28:41;98176.81;;;3.50;92.12
82458;BME280;72081;48.870;11.074;2024-02-21T00:31:06;98166.44;;;3.49;91.75
82458;BME280;72081;48.870;11.074;2024-02-21T00:33:32;98161.00;;;3.50;91.58
82458;BME280;72081;48.870;11.074;2024-02-21T00:35:57;98154.88;;;3.50;91.52
82458;BME280;72081;48.870;11.074;2024-02-21T00:38:22;98157.69;;;3.48;91.50
82458;BME280;72081;48.870;11.074;2024-02-21T00:40:47;98166.59;;;3.47;91.65
82458;BME280;72081;48.870;11.074;2024-02-21T00:43:13;98158.31;;;3.42;91.75
82458;BME280;72081;48.870;11.074;2024-02-21T00:45:38;98149.25;;;3.45;92.49
82458;BME280;72081;48.870;11.074;2024-02-21T00:48:04;98156.03;;;3.47;92.66
82458;BME280;72081;48.870;11.074;2024-02-21T00:50:29;98147.81;;;3.50;92.50
82458;BME280;72081;48.870;11.074;2024-02-21T00:52:55;98150.28;;;3.52;92.23
82458;BME280;72081;48.870;11.074;2024-02-21T00:55:20;98152.41;;;3.56;91.66
82458;BME280;72081;48.870;11.074;2024-02-21T00:57:45;98151.59;;;3.64;91.55
82458;BME280;72081;48.870;11.074;2024-02-21T01:00:11;98145.19;;;3.67;90.93
82458;BME280;72081;48.870;11.074;2024-02-21T01:02:36;98149.63;;;3.66;90.87
82458;BME280;72081;48.870;11.074;2024-02-21T01:05:02;98149.78;;;3.64;91.29
82458;BME280;72081;48.870;11.074;2024-02-21T01:07:27;98136.09;;;3.61;91.15
82458;BME280;72081;48.870;11.074;2024-02-21T01:09:52;98140.88;;;3.57;91.93
82458;BME280;72081;48.870;11.074;2024-02-21T01:12:18;98144.66;;;3.63;90.98
82458;BME280;72081;48.870;11.074;2024-02-21T01:14:44;98132.47;;;3.62;90.99
82458;BME280;72081;48.870;11.074;2024-02-21T01:17:11;98128.81;;;3.63;90.93
82458;BME280;72081;48.870;11.074;2024-02-21T01:19:36;98125.69;;;3.59;90.82
82458;BME280;72081;48.870;11.074;2024-02-21T01:22:01;98121.09;;;3.53;91.59
82458;BME280;72081;48.870;11.074;2024-02-21T01:24:27;98122.06;;;3.52;92.01
82458;BME280;72081;48.870;11.074;2024-02-21T01:26:52;98120.75;;;3.48;91.94
82458;BME280;72081;48.870;11.074;2024-02-21T01:29:17;98117.75;;;3.43;92.99
82458;BME280;72081;48.870;11.074;2024-02-21T01:31:42;98109.34;;;3.40;92.73
82458;BME280;72081;48.870;11.074;2024-02-21T01:34:08;98108.19;;;3.34;92.84
82458;BME280;72081;48.870;11.074;2024-02-21T01:36:33;98102.59;;;3.45;93.02
82458;BME280;72081;48.870;11.074;2024-02-21T01:38:58;98104.09;;;3.48;92.67
82458;BME280;72081;48.870;11.074;2024-02-21T01:41:24;98094.50;;;3.39;92.79
82458;BME280;72081;48.870;11.074;2024-02-21T01:43:49;98092.34;;;3.26;92.68
82458;BME280;72081;48.870;11.074;2024-02-21T01:46:15;98085.41;;;3.25;93.36
82458;BME280;72081;48.870;11.074;2024-02-21T01:48:40;98090.72;;;3.33;93.61
82458;BME280;72081;48.870;11.074;2024-02-21T01:51:05;98089.72;;;3.42;93.30
82458;BME280;72081;48.870;11.074;2024-02-21T01:53:36;98083.13;;;3.46;92.00
82458;BME280;72081;48.870;11.074;2024-02-21T01:56:03;98083.47;;;3.51;92.51
82458;BME280;72081;48.870;11.074;2024-02-21T01:58:30;98082.16;;;3.47;91.86
82458;BME280;72081;48.870;11.074;2024-02-21T02:00:56;98085.09;;;3.36;92.55
82458;BME280;72081;48.870;11.074;2024-02-21T02:03:22;98074.56;;;3.36;92.97
82458;BME280;72081;48.870;11.074;2024-02-21T02:05:49;98075.72;;;3.42;93.22
82458;BME280;72081;48.870;11.074;2024-02-21T02:09:31;98067.63;;;3.35;92.91
82458;BME280;72081;48.870;11.074;2024-02-21T02:11:56;98064.34;;;3.41;93.42
82458;BME280;72081;48.870;11.074;2024-02-21T02:14:23;98056.75;;;3.38;92.98
82458;BME280;72081;48.870;11.074;2024-02-21T02:16:48;98057.25;;;3.42;93.23
82458;BME280;72081;48.870;11.074;2024-02-21T02:19:14;98049.84;;;3.29;93.88
82458;BME280;72081;48.870;11.074;2024-02-21T02:21:46;98047.81;;;3.23;93.11
82458;BME280;72081;48.870;11.074;2024-02-21T02:24:19;98049.47;;;3.16;93.60
82458;BME280;72081;48.870;11.074;2024-02-21T02:26:44;98051.13;;;3.17;93.98
82458;BME280;72081;48.870;11.074;2024-02-21T02:29:13;98046.84;;;3.24;94.33
82458;BME280;72081;48.870;11.074;2024-02-21T02:31:38;98042.41;;;3.32;94.66
82458;BME280;72081;48.870;11.074;2024-02-21T02:34:03;98041.75;;;3.39;94.34
82458;BME280;72081;48.870;11.074;2024-02-21T02:36:32;98048.84;;;3.38;93.00
82458;BME280;72081;48.870;11.074;2024-02-21T02:38:58;98044.22;;;3.40;93.69
82458;BME280;72081;48.870;11.074;2024-02-21T02:41:23;98047.19;;;3.37;93.89
82458;BME280;72081;48.870;11.074;2024-02-21T02:43:48;98044.88;;;3.42;94.57
82458;BME280;72081;48.870;11.074;2024-02-21T02:46:13;98042.59;;;3.47;94.31
82458;BME280;72081;48.870;11.074;2024-02-21T02:48:39;98035.81;;;3.45;93.63
82458;BME280;72081;48.870;11.074;2024-02-21T02:51:04;98033.66;;;3.40;93.71
82458;BME280;72081;48.870;11.074;2024-02-21T02:53:29;98031.53;;;3.44;94.03
82458;BME280;72081;48.870;11.074;2024-02-21T02:55:54;98033.69;;;3.48;93.85
82458;BME280;72081;48.870;11.074;2024-02-21T02:58:20;98031.19;;;3.55;93.91
82458;BME280;72081;48.870;11.074;2024-02-21T03:00:45;98028.06;;;3.59;93.15
82458;BME280;72081;48.870;11.074;2024-02-21T03:03:11;98026.44;;;3.50;93.77
82458;BME280;72081;48.870;11.074;2024-02-21T03:05:36;98028.72;;;3.53;94.44
82458;BME280;72081;48.870;11.074;2024-02-21T03:08:01;98031.84;;;3.57;94.47
82458;BME280;72081;48.870;11.074;2024-02-21T03:10:26;98023.78;;;3.67;94.15
82458;BME280;72081;48.870;11.074;2024-02-21T03:12:52;98011.91;;;3.71;93.01
82458;BME280;72081;48.870;11.074;2024-02-21T03:15:18;98006.44;;;3.72;92.65
82458;BME280;72081;48.870;11.074;2024-02-21T03:17:43;98006.09;;;3.75;92.74
82458;BME280;72081;48.870;11.074;2024-02-21T03:20:09;98006.28;;;3.74;92.71
82458;BME280;72081;48.870;11.074;2024-02-21T03:22:35;98001.34;;;3.71;93.55
82458;BME280;72081;48.870;11.074;2024-02-21T03:25:00;97996.41;;;3.68;93.70
82458;BME280;72081;48.870;11.074;2024-02-21T03:27:26;97997.22;;;3.68;93.87
82458;BME280;72081;48.870;11.074;2024-02-21T03:29:51;98002.34;;;3.70;93.00
82458;BME280;72081;48.870;11.074;2024-02-21T03:32:17;98005.78;;;3.70;92.46
82458;BME280;72081;48.870;11.074;2024-02-21T03:34:42;98008.91;;;3.74;91.75
82458;BME280;72081;48.870;11.074;2024-02-21T03:37:07;98000.00;;;3.75;91.68
82458;BME280;72081;48.870;11.074;2024-02-21T03:39:32;97999.31;;;3.81;91.72
82458;BME280;72081;48.870;11.074;2024-02-21T03:41:58;98003.44;;;3.83;91.09
82458;BME280;72081;48.870;11.074;2024-02-21T03:44:26;98001.16;;;3.88;91.65
82458;BME280;72081;48.870;11.074;2024-02-21T03:46:52;97994.22;;;3.87;91.19
82458;BME280;72081;48.870;11.074;2024-02-21T03:49:17;97983.66;;;3.87;91.40
82458;BME280;72081;48.870;11.074;2024-02-21T03:51:43;97991.59;;;3.87;90.39
82458;BME280;72081;48.870;11.074;2024-02-21T03:54:08;97989.59;;;3.89;91.26
82458;BME280;72081;48.870;11.074;2024-02-21T03:56:37;97986.13;;;3.89;90.76
82458;BME280;72081;48.870;11.074;2024-02-21T03:59:02;97984.31;;;3.89;91.11
82458;BME280;72081;48.870;11.074;2024-02-21T04:01:27;97974.22;;;3.93;90.92
82458;BME280;72081;48.870;11.074;2024-02-21T04:03:53;97968.13;;;3.92;90.54
82458;BME280;72081;48.870;11.074;2024-02-21T04:06:18;97968.78;;;3.94;90.74
82458;BME280;72081;48.870;11.074;2024-02-21T04:08:44;97964.50;;;3.93;90.19
82458;BME280;72081;48.870;11.074;2024-02-21T04:11:10;97963.50;;;3.94;89.87
82458;BME280;72081;48.870;11.074;2024-02-21T04:13:35;97968.59;;;3.96;90.25
82458;BME280;72081;48.870;11.074;2024-02-21T04:16:00;97966.44;;;4.00;90.36
82458;BME280;72081;48.870;11.074;2024-02-21T04:18:26;97961.97;;;4.00;89.62
82458;BME280;72081;48.870;11.074;2024-02-21T04:20:51;97961.00;;;4.01;89.18
82458;BME280;72081;48.870;11.074;2024-02-21T04:23:16;97954.88;;;4.01;89.02
82458;BME280;72081;48.870;11.074;2024-02-21T04:25:42;97957.53;;;4.01;89.58
82458;BME280;72081;48.870;11.074;2024-02-21T04:28:07;97943.69;;;3.99;89.52
82458;BME280;72081;48.870;11.074;2024-02-21T04:30:32;97947.63;;;4.03;89.76
82458;BME280;72081;48.870;11.074;2024-02-21T04:32:57;97946.63;;;4.04;89.36
82458;BME280;72081;48.870;11.074;2024-02-21T04:35:23;97947.78;;;4.01;89.59
82458;BME280;72081;48.870;11.074;2024-02-21T04:37:49;97946.31;;;3.99;89.65
82458;BME280;72081;48.870;11.074;2024-02-21T04:40:14;97944.84;;;3.96;89.56
82458;BME280;72081;48.870;11.074;2024-02-21T04:42:39;97942.84;;;3.98;89.89
82458;BME280;72081;48.870;11.074;2024-02-21T04:45:05;97928.19;;;3.95;89.69
82458;BME280;72081;48.870;11.074;2024-02-21T04:47:31;97933.28;;;3.97;89.74
82458;BME280;72081;48.870;11.074;2024-02-21T04:49:56;97928.19;;;3.95;89.47
82458;BME280;72081;48.870;11.074;2024-02-21T04:52:21;97926.19;;;3.97;89.80
82458;BME280;72081;48.870;11.074;2024-02-21T04:54:47;97918.63;;;3.94;90.04
82458;BME280;72081;48.870;11.074;2024-02-21T04:58:18;97925.38;;;3.97;90.10
82458;BME280;72081;48.870;11.074;2024-02-21T05:00:43;97918.09;;;3.99;90.06
82458;BME280;72081;48.870;11.074;2024-02-21T05:03:08;97921.72;;;3.98;89.81
82458;BME280;72081;48.870;11.074;2024-02-21T05:05:33;97913.34;;;3.94;90.75
82458;BME280;72081;48.870;11.074;2024-02-21T05:07:59;97907.56;;;3.91;91.12
82458;BME280;72081;48.870;11.074;2024-02-21T05:10:24;97907.91;;;3.88;91.62
82458;BME280;72081;48.870;11.074;2024-02-21T05:12:49;97906.56;;;3.92;91.74
82458;BME280;72081;48.870;11.074;2024-02-21T05:15:15;97904.59;;;3.94;91.63
82458;BME280;72081;48.870;11.074;2024-02-21T05:17:40;97906.56;;;3.92;91.25
82458;BME280;72081;48.870;11.074;2024-02-21T05:20:05;97902.00;;;3.86;91.34
82458;BME280;72081;48.870;11.074;2024-02-21T05:22:31;97902.00;;;3.86;92.44
82458;BME280;72081;48.870;11.074;2024-02-21T05:24:56;97895.72;;;3.87;92.06
82458;BME280;72081;48.870;11.074;2024-02-21T05:27:21;97894.72;;;3.88;92.33
82458;BME280;72081;48.870;11.074;2024-02-21T05:29:47;97897.00;;;3.91;91.83
82458;BME280;72081;48.870;11.074;2024-02-21T05:32:14;97900.47;;;3.91;91.91
82458;BME280;72081;48.870;11.074;2024-02-21T05:34:39;97882.16;;;3.90;91.23
82458;BME280;72081;48.870;11.074;2024-02-21T05:37:05;97887.91;;;3.93;91.83
82458;BME280;72081;48.870;11.074;2024-02-21T05:39:30;97882.81;;;3.92;91.72
82458;BME280;72081;48.870;11.074;2024-02-21T05:41:55;97881.81;;;3.93;92.18
82458;BME280;72081;48.870;11.074;2024-02-21T05:44:20;97878.53;;;3.91;92.10
82458;BME280;72081;48.870;11.074;2024-02-21T05:46:47;97872.25;;;3.92;92.20
82458;BME280;72081;48.870;11.074;2024-02-21T05:49:12;97874.91;;;3.92;91.90
82458;BME280;72081;48.870;11.074;2024-02-21T05:51:37;97864.69;;;3.81;91.77
82458;BME280;72081;48.870;11.074;2024-02-21T05:54:03;97852.19;;;3.75;92.63
82458;BME280;72081;48.870;11.074;2024-02-21T05:56:28;97844.63;;;3.63;92.92
82458;BME280;72081;48.870;11.074;2024-02-21T05:58:53;97832.09;;;3.65;92.98
82458;BME280;72081;48.870;11.074;2024-02-21T06:01:19;97830.13;;;3.68;92.36
82458;BME280;72081;48.870;11.074;2024-02-21T06:03:46;97839.38;;;3.63;91.62
82458;BME280;72081;48.870;11.074;2024-02-21T06:06:11;97845.81;;;3.61;92.34
82458;BME280;72081;48.870;11.074;2024-02-21T06:08:36;97857.53;;;3.58;92.51
82458;BME280;72081;48.870;11.074;2024-02-21T06:11:01;97857.69;;;3.57;91.73
82458;BME280;72081;48.870;11.074;2024-02-21T06:13:27;97857.56;;;3.50;91.83
82458;BME280;72081;48.870;11.074;2024-02-21T06:15:52;97870.59;;;3.52;92.12
82458;BME280;72081;48.870;11.074;2024-02-21T06:18:18;97872.38;;;3.59;92.79
82458;BME280;72081;48.870;11.074;2024-02-21T06:20:44;97878.63;;;3.58;91.73
82458;BME280;72081;48.870;11.074;2024-02-21T06:23:09;97867.59;;;3.55;91.77
82458;BME280;72081;48.870;11.074;2024-02-21T06:25:35;97861.84;;;3.43;91.30
82458;BME280;72081;48.870;11.074;2024-02-21T06:28:00;97857.56;;;3.42;92.30
82458;BME280;72081;48.870;11.074;2024-02-21T06:30:25;97861.88;;;3.35;92.46
82458;BME280;72081;48.870;11.074;2024-02-21T06:32:51;97856.63;;;3.35;92.10
82458;BME280;72081;48.870;11.074;2024-02-21T06:35:17;97861.25;;;3.33;92.63
82458;BME280;72081;48.870;11.074;2024-02-21T06:37:42;97852.03;;;3.29;93.02
82458;BME280;72081;48.870;11.074;2024-02-21T06:40:07;97852.84;;;3.29;92.73
82458;BME280;72081;48.870;11.074;2024-02-21T06:42:33;97858.13;;;3.29;92.21
82458;BME280;72081;48.870;11.074;2024-02-21T06:44:58;97855.47;;;3.21;92.34
82458;BME280;72081;48.870;11.074;2024-02-21T06:47:23;97855.31;;;3.31;92.08
82458;BME280;72081;48.870;11.074;2024-02-21T06:49:49;97867.00;;;3.37;91.51
82458;BME280;72081;48.870;11.074;2024-02-21T06:52:17;97873.59;;;3.32;92.27
82458;BME280;72081;48.870;11.074;2024-02-21T06:54:45;97879.16;;;3.46;92.44
82458;BME280;72081;48.870;11.074;2024-02-21T06:57:10;97878.69;;;3.42;91.93
82458;BME280;72081;48.870;11.074;2024-02-21T06:59:35;97884.59;;;3.44;92.06
82458;BME280;72081;48.870;11.074;2024-02-21T07:02:00;97892.84;;;3.41;90.72
82458;BME280;72081;48.870;11.074;2024-02-21T07:04:26;97897.47;;;3.39;91.10
82458;BME280;72081;48.870;11.074;2024-02-21T07:06:52;97902.44;;;3.34;91.14
82458;BME280;72081;48.870;11.074;2024-02-21T07:09:17;97900.63;;;3.34;91.62
82458;BME280;72081;48.870;11.074;2024-02-21T07:11:43;97893.53;;;3.35;91.77
82458;BME280;72081;48.870;11.074;2024-02-21T07:14:08;97892.72;;;3.34;91.65
82458;BME280;72081;48.870;11.074;2024-02-21T07:16:33;97880.31;;;3.43;92.29
82458;BME280;72081;48.870;11.074;2024-02-21T07:18:59;97880.59;;;3.64;91.92
82458;BME280;72081;48.870;11.074;2024-02-21T07:21:24;97865.03;;;3.86;90.67
82458;BME280;72081;48.870;11.074;2024-02-21T07:23:49;97850.69;;;3.80;89.14
82458;BME280;72081;48.870;11.074;2024-02-21T07:26:15;97855.78;;;3.90;90.29
82458;BME280;72081;48.870;11.074;2024-02-21T07:28:40;97847.09;;;4.58;89.51
82458;BME280;72081;48.870;11.074;2024-02-21T07:31:05;97825.22;;;6.56;82.02
82458;BME280;72081;48.870;11.074;2024-02-21T07:33:30;97820.13;;;8.20;74.37
82458;BME280;72081;48.870;11.074;2024-02-21T07:35:56;97823.84;;;9.71;66.83
82458;BME280;72081;48.870;11.074;2024-02-21T07:38:21;97819.56;;;10.91;63.54
82458;BME280;72081;48.870;11.074;2024-02-21T07:40:47;97822.81;;;11.43;60.48
82458;BME280;72081;48.870;11.074;2024-02-21T07:43:13;97815.25;;;10.90;60.38
82458;BME280;72081;48.870;11.074;2024-02-21T07:47:04;97822.66;;;10.88;60.81
82458;BME280;72081;48.870;11.074;2024-02-21T07:49:32;97819.78;;;11.40;60.72
82458;BME280;72081;48.870;11.074;2024-02-21T07:51:57;97818.13;;;12.00;57.28
82458;BME280;72081;48.870;11.074;2024-02-21T07:54:22;97811.66;;;12.08;56.51
82458;BME280;72081;48.870;11.074;2024-02-21T07:56:48;97816.72;;;11.54;57.59
82458;BME280;72081;48.870;11.074;2024-02-21T07:59:13;97817.91;;;11.40;58.59
82458;BME280;72081;48.870;11.074;2024-02-21T08:01:39;97815.19;;;11.47;59.13
82458;BME280;72081;48.870;11.074;2024-02-21T08:04:04;97811.59;;;11.35;58.86
82458;BME280;72081;48.870;11.074;2024-02-21T08:06:29;97815.50;;;11.32;59.72
82458;BME280;72081;48.870;11.074;2024-02-21T08:08:55;97811.00;;;11.33;58.49
82458;BME280;72081;48.870;11.074;2024-02-21T08:11:22;97821.41;;;11.16;58.80
82458;BME280;72081;48.870;11.074;2024-02-21T08:13:47;97814.31;;;10.78;60.26
82458;BME280;72081;48.870;11.074;2024-02-21T08:16:12;97806.94;;;10.49;61.30
82458;BME280;72081;48.870;11.074;2024-02-21T08:18:38;97810.78;;;10.53;61.83
82458;BME280;72081;48.870;11.074;2024-02-21T08:21:04;97811.38;;;10.17;61.08
82458;BME280;72081;48.870;11.074;2024-02-21T08:23:29;97795.13;;;9.80;61.91
82458;BME280;72081;48.870;11.074;2024-02-21T08:25:54;97795.19;;;9.67;63.65
82458;BME280;72081;48.870;11.074;2024-02-21T08:28:20;97787.06;;;9.93;63.59
82458;BME280;72081;48.870;11.074;2024-02-21T08:30:45;97781.94;;;10.37;61.79
82458;BME280;72081;48.870;11.074;2024-02-21T08:33:14;97772.84;;;10.51;62.39
82458;BME280;72081;48.870;11.074;2024-02-21T08:35:39;97766.03;;;10.55;60.09
82458;BME280;72081;48.870;11.074;2024-02-21T08:38:05;97759.69;;;10.24;60.57
82458;BME280;72081;48.870;11.074;2024-02-21T08:40:30;97767.28;;;10.14;61.14
82458;BME280;72081;48.870;11.074;2024-02-21T08:42:55;97768.66;;;9.85;62.71
82458;BME280;72081;48.870;11.074;2024-02-21T08:45:20;97763.03;;;9.42;63.27
82458;BME280;72081;48.870;11.074;2024-02-21T08:47:46;97771.69;;;9.24;65.68
82458;BME280;72081;48.870;11.074;2024-02-21T08:50:11;97768.66;;;9.07;63.89
82458;BME280;72081;48.870;11.074;2024-02-21T08:52:36;97765.34;;;9.25;65.01
82458;BME280;72081;48.870;11.074;2024-02-21T08:55:02;97765.16;;;9.13;63.68
82458;BME280;72081;48.870;11.074;2024-02-21T08:57:27;97759.25;;;8.98;66.22
82458;BME280;72081;48.870;11.074;2024-02-21T08:59:53;97752.50;;;8.96;66.36
82458;BME280;72081;48.870;11.074;2024-02-21T09:02:18;97746.13;;;9.03;65.33
82458;BME280;72081;48.870;11.074;2024-02-21T09:04:44;97753.53;;;8.95;64.70
82458;BME280;72081;48.870;11.074;2024-02-21T09:07:10;97742.44;;;9.04;65.63
82458;BME280;72081;48.870;11.074;2024-02-21T09:09:35;97747.38;;;9.07;67.35
82458;BME280;72081;48.870;11.074;2024-02-21T09:12:00;97743.25;;;9.05;67.07
82458;BME280;72081;48.870;11.074;2024-02-21T09:14:36;97736.31;;;9.10;66.75
82458;BME280;72081;48.870;11.074;2024-02-21T09:17:03;97730.59;;;8.94;68.47
82458;BME280;72081;48.870;11.074;2024-02-21T09:19:29;97738.75;;;8.99;67.57
82458;BME280;72081;48.870;11.074;2024-02-21T09:21:55;97728.94;;;8.99;66.63
82458;BME280;72081;48.870;11.074;2024-02-21T09:24:20;97729.34;;;9.03;66.54
82458;BME280;72081;48.870;11.074;2024-02-21T09:26:46;97721.34;;;9.03;65.60
82458;BME280;72081;48.870;11.074;2024-02-21T09:29:11;97725.66;;;9.04;66.21
82458;BME280;72081;48.870;11.074;2024-02-21T09:31:36;97718.69;;;9.09;65.49
82458;BME280;72081;48.870;11.074;2024-02-21T09:34:04;97713.38;;;9.09;64.84
82458;BME280;72081;48.870;11.074;2024-02-21T09:36:29;97705.38;;;9.09;64.87
82458;BME280;72081;48.870;11.074;2024-02-21T09:38:55;97700.03;;;9.16;64.52
82458;BME280;72081;48.870;11.074;2024-02-21T09:41:27;97699.41;;;9.21;64.52
82458;BME280;72081;48.870;11.074;2024-02-21T09:43:53;97695.72;;;9.22;64.72
82458;BME280;72081;48.870;11.074;2024-02-21T09:46:21;97686.69;;;9.23;65.69
82458;BME280;72081;48.870;11.074;2024-02-21T09:49:11;97689.94;;;9.31;65.22
82458;BME280;72081;48.870;11.074;2024-02-21T09:51:39;97689.53;;;9.34;65.06
82458;BME280;72081;48.870;11.074;2024-02-21T09:54:07;97691.72;;;9.44;62.82
82458;BME280;72081;48.870;11.074;2024-02-21T09:56:32;97676.34;;;9.53;62.00
82458;BME280;72081;48.870;11.074;2024-02-21T09:58:58;97677.72;;;9.62;61.37
82458;BME280;72081;48.870;11.074;2024-02-21T10:01:23;97680.97;;;9.70;59.86
82458;BME280;72081;48.870;11.074;2024-02-21T10:03:48;97671.31;;;9.76;62.64
82458;BME280;72081;48.870;11.074;2024-02-21T10:06:14;97669.63;;;9.82;60.82
82458;BME280;72081;48.870;11.074;2024-02-21T10:08:40;97679.66;;;9.86;59.13
82458;BME280;72081;48.870;11.074;2024-02-21T10:11:05;97664.06;;;9.83;59.94
82458;BME280;72081;48.870;11.074;2024-02-21T10:13:31;97664.56;;;9.73;57.99
82458;BME280;72081;48.870;11.074;2024-02-21T10:16:08;97658.47;;;9.66;60.11
82458;BME280;72081;48.870;11.074;2024-02-21T10:18:34;97661.72;;;9.68;60.25
82458;BME280;72081;48.870;11.074;2024-02-21T10:21:07;97652.66;;;9.76;59.19
82458;BME280;72081;48.870;11.074;2024-02-21T10:26:11;97657.69;;;9.91;60.33
82458;BME280;72081;48.870;11.074;2024-02-21T10:28:37;97659.53;;;9.90;59.74
82458;BME280;72081;48.870;11.074;2024-02-21T10:31:07;97660.19;;;9.86;59.85
82458;BME280;72081;48.870;11.074;2024-02-21T10:35:51;97651.41;;;9.79;59.08
82458;BME280;72081;48.870;11.074;2024-02-21T10:38:16;97641.13;;;9.82;59.78
82458;BME280;72081;48.870;11.074;2024-02-21T10:40:42;97637.13;;;9.98;59.96
82458;BME280;72081;48.870;11.074;2024-02-21T10:43:12;97644.00;;;10.12;59.86
82458;BME280;72081;48.870;11.074;2024-02-21T10:45:38;97631.50;;;10.13;59.04
82458;BME280;72081;48.870;11.074;2024-02-21T10:48:12;97636.16;;;10.17;58.77
82458;BME280;72081;48.870;11.074;2024-02-21T10:50:56;97629.56;;;10.20;58.11
82458;BME280;72081;48.870;11.074;2024-02-21T10:58:52;97626.72;;;10.21;61.79
82458;BME280;72081;48.870;11.074;2024-02-21T11:01:19;97613.19;;;10.16;60.41
82458;BME280;72081;48.870;11.074;2024-02-21T11:03:46;97620.16;;;10.17;62.67
82458;BME280;72081;48.870;11.074;2024-02-21T11:06:16;97608.38;;;10.07;63.11
82458;BME280;72081;48.870;11.074;2024-02-21T11:08:42;97600.81;;;10.03;62.98
82458;BME280;72081;48.870;11.074;2024-02-21T11:11:08;97603.66;;;10.02;63.48
82458;BME280;72081;48.870;11.074;2024-02-21T11:13:37;97599.81;;;9.98;63.89
82458;BME280;72081;48.870;11.074;2024-02-21T11:16:25;97585.28;;;9.94;64.34
82458;BME280;72081;48.870;11.074;2024-02-21T11:18:50;97594.41;;;9.80;65.08
82458;BME280;72081;48.870;11.074;2024-02-21T11:21:16;97598.28;;;9.84;64.18
82458;BME280;72081;48.870;11.074;2024-02-21T11:23:41;97592.31;;;9.88;63.98
82458;BME280;72081;48.870;11.074;2024-02-21T11:26:07;97590.44;;;9.89;63.57
82458;BME280;72081;48.870;11.074;2024-02-21T11:28:33;97586.69;;;9.96;63.04
82458;BME280;72081;48.870;11.074;2024-02-21T11:31:09;97571.47;;;10.03;64.31
82458;BME280;72081;48.870;11.074;2024-02-21T11:33:35;97568.38;;;10.07;64.30
82458;BME280;72081;48.870;11.074;2024-02-21T11:36:01;97562.75;;;10.15;62.90
82458;BME280;72081;48.870;11.074;2024-02-21T11:38:29;97557.41;;;10.15;62.67
82458;BME280;72081;48.870;11.074;2024-02-21T11:40:54;97553.91;;;10.21;62.88
82458;BME280;72081;48.870;11.074;2024-02-21T11:43:20;97546.91;;;10.26;61.69
82458;BME280;72081;48.870;11.074;2024-02-21T11:45:45;97538.06;;;10.26;59.89
82458;BME280;72081;48.870;11.074;2024-02-21T11:48:10;97533.13;;;10.29;60.93
82458;BME280;72081;48.870;11.074;2024-02-21T11:50:36;97538.72;;;10.21;58.83
82458;BME280;72081;48.870;11.074;2024-02-21T11:53:02;97526.75;;;10.30;61.17
82458;BME280;72081;48.870;11.074;2024-02-21T11:55:27;97525.09;;;10.29;59.79
82458;BME280;72081;48.870;11.074;2024-02-21T11:57:53;97525.34;;;10.28;59.68
82458;BME280;72081;48.870;11.074;2024-02-21T12:00:19;97512.44;;;10.25;60.24
82458;BME280;72081;48.870;11.074;2024-02-21T12:02:50;97509.31;;;10.28;59.01
82458;BME280;72081;48.870;11.074;2024-02-21T12:05:16;97497.47;;;10.24;61.13
82458;BME280;72081;48.870;11.074;2024-02-21T12:07:42;97493.38;;;10.40;60.23
82458;BME280;72081;48.870;11.074;2024-02-21T12:10:09;97485.09;;;10.48;58.59
82458;BME280;72081;48.870;11.074;2024-02-21T12:12:35;97483.75;;;10.57;59.11
82458;BME280;72081;48.870;11.074;2024-02-21T12:15:03;97463.09;;;10.52;56.31
82458;BME280;72081;48.870;11.074;2024-02-21T12:17:30;97455.81;;;10.59;58.80
82458;BME280;72081;48.870;11.074;2024-02-21T12:19:56;97461.31;;;10.64;57.34
82458;BME280;72081;48.870;11.074;2024-02-21T12:22:21;97463.16;;;10.64;57.64
82458;BME280;72081;48.870;11.074;2024-02-21T12:24:47;97463.44;;;10.74;58.70
82458;BME280;72081;48.870;11.074;2024-02-21T12:27:13;97462.84;;;10.72;56.83
82458;BME280;72081;48.870;11.074;2024-02-21T12:29:39;97447.41;;;10.74;55.62
82458;BME280;72081;48.870;11.074;2024-02-21T12:32:04;97452.03;;;10.67;54.54
82458;BME280;72081;48.870;11.074;2024-02-21T12:34:30;97442.84;;;10.63;55.15
82458;BME280;72081;48.870;11.074;2024-02-21T12:36:58;97444.03;;;10.67;55.68
82458;BME280;72081;48.870;11.074;2024-02-21T12:39:23;97441.94;;;10.69;55.03
82458;BME280;72081;48.870;11.074;2024-02-21T12:41:49;97438.81;;;10.72;56.02
82458;BME280;72081;48.870;11.074;2024-02-21T12:44:14;97431.75;;;10.78;54.89
82458;BME280;72081;48.870;11.074;2024-02-21T12:46:41;97423.41;;;10.74;54.28
82458;BME280;72081;48.870;11.074;2024-02-21T12:49:06;97422.22;;;10.70;54.88
82458;BME280;72081;48.870;11.074;2024-02-21T12:51:33;97424.13;;;10.81;54.45
82458;BME280;72081;48.870;11.074;2024-02-21T12:53:59;97416.72;;;10.83;54.38
82458;BME280;72081;48.870;11.074;2024-02-21T12:56:25;97406.53;;;10.92;55.77
82458;BME280;72081;48.870;11.074;2024-02-21T12:58:52;97406.22;;;11.00;54.89
82458;BME280;72081;48.870;11.074;2024-02-21T13:01:17;97403.09;;;11.03;53.56
82458;BME280;72081;48.870;11.074;2024-02-21T13:03:42;97395.41;;;11.07;54.29
82458;BME280;72081;48.870;11.074;2024-02-21T13:06:08;97387.19;;;11.08;55.04